createdAt,value
2019-02-20T00:00:44.222Z,7.87
2019-02-20T00:03:41.417Z,8.30
2019-02-20T00:06:51.446Z,8.40
2019-02-20T00:09:25.201Z,8.35
2019-02-20T00:11:58.941Z,7.90
2019-02-20T00:14:36.547Z,7.67
2019-02-20T00:17:28.867Z,8.48
2019-02-20T00:20:13.792Z,7.60
2019-02-20T00:22:43.868Z,8.00
2019-02-20T00:25:38.168Z,7.90
2019-02-20T00:28:10.258Z,8.68
2019-02-20T00:30:50.244Z,7.28
2019-02-20T00:33:20.778Z,8.00
2019-02-20T00:35:53.479Z,8.85
2019-02-20T00:38:32.937Z,8.68
2019-02-20T00:41:05.160Z,9.15
2019-02-20T00:43:35.867Z,9.25
2019-02-20T00:46:20.744Z,8.13
2019-02-20T00:53:05.578Z,9.05
2019-02-20T00:55:38.871Z,9.00
2019-02-20T00:58:09.716Z,8.48
2019-02-20T01:00:45.618Z,8.55
2019-02-20T01:03:57.505Z,9.20
2019-02-20T01:06:59.909Z,9.50
2019-02-20T01:09:29.704Z,8.85
2019-02-20T01:16:33.098Z,9.28
2019-02-20T01:18:47.938Z,9.90
2019-02-20T01:21:24.610Z,9.35
2019-02-20T01:23:56.289Z,9.13
2019-02-20T01:26:27.197Z,10.13
2019-02-20T01:29:02.717Z,9.23
2019-02-20T01:31:33.953Z,9.38
2019-02-20T01:34:12.958Z,9.75
2019-02-20T01:36:44.057Z,10.18
2019-02-20T01:39:14.818Z,10.23
2019-02-20T01:41:45.523Z,9.33
2019-02-20T01:44:16.104Z,9.43
2019-02-20T01:46:47.797Z,9.23
2019-02-20T01:49:18.517Z,10.60
2019-02-20T01:51:49.748Z,9.78
2019-02-20T01:54:20.499Z,11.05
2019-02-20T01:56:51.287Z,10.72
2019-02-20T01:59:22.032Z,10.08
2019-02-20T02:01:52.670Z,10.55
2019-02-20T02:04:23.447Z,10.88
2019-02-20T02:06:53.988Z,10.28
2019-02-20T02:09:24.651Z,9.70
2019-02-20T02:11:55.208Z,9.98
2019-02-20T02:14:26.750Z,11.35
2019-02-20T02:16:57.472Z,12.30
2019-02-20T02:19:28.707Z,10.63
2019-02-20T02:24:30.328Z,10.15
2019-02-20T02:27:01.243Z,11.30
2019-02-20T02:29:33.392Z,10.80
2019-02-20T02:32:04.077Z,11.22
2019-02-20T02:34:34.777Z,11.43
2019-02-20T02:37:05.461Z,11.03
2019-02-20T02:39:36.455Z,10.85
2019-02-20T02:42:07.078Z,11.40
2019-02-20T02:44:37.688Z,10.43
2019-02-20T02:47:08.277Z,12.68
2019-02-20T02:49:39.139Z,11.60
2019-02-20T02:52:09.839Z,12.20
2019-02-20T02:54:40.521Z,11.12
2019-02-20T02:57:11.098Z,11.30
2019-02-20T02:59:41.917Z,13.18
2019-02-20T03:02:12.671Z,11.78
2019-02-20T03:04:43.277Z,11.95
2019-02-20T03:07:13.807Z,12.28
2019-02-20T03:09:44.413Z,12.15
2019-02-20T03:12:14.948Z,12.75
2019-02-20T03:14:45.610Z,12.58
2019-02-20T03:17:16.206Z,11.90
2019-02-20T03:19:47.167Z,12.43
2019-02-20T03:22:18.259Z,12.88
2019-02-20T03:24:48.862Z,13.13
2019-02-20T03:27:19.581Z,11.20
2019-02-20T03:29:50.608Z,12.20
2019-02-20T03:32:21.240Z,12.47
2019-02-20T03:34:51.837Z,11.90
2019-02-20T03:37:22.509Z,12.65
2019-02-20T03:39:53.103Z,13.08
2019-02-20T03:42:23.707Z,12.68
2019-02-20T03:44:54.268Z,11.53
2019-02-20T03:47:24.891Z,13.00
2019-02-20T03:49:55.429Z,11.97
2019-02-20T03:52:25.999Z,11.83
2019-02-20T03:54:56.522Z,12.10
2019-02-20T03:57:27.097Z,11.20
2019-02-20T03:59:57.688Z,12.00
2019-02-20T04:02:28.304Z,11.48
2019-02-20T04:04:58.888Z,11.38
2019-02-20T04:07:30.629Z,11.43
2019-02-20T04:10:01.148Z,11.78
2019-02-20T04:12:32.197Z,11.97
2019-02-20T04:15:02.803Z,11.03
2019-02-20T04:17:33.587Z,11.53
2019-02-20T04:20:04.272Z,11.50
2019-02-20T04:22:34.919Z,11.68
2019-02-20T04:25:05.808Z,12.23
2019-02-20T04:27:36.581Z,12.25
2019-02-20T04:30:08.328Z,11.55
2019-02-20T04:32:39.106Z,12.50
2019-02-20T04:35:10.227Z,12.82
2019-02-20T04:37:43.788Z,12.85
2019-02-20T04:40:18.041Z,12.30
2019-02-20T04:42:48.754Z,13.62
2019-02-20T04:45:19.869Z,13.72
2019-02-20T04:47:50.604Z,14.30
2019-02-20T04:50:21.500Z,13.53
2019-02-20T04:52:52.429Z,13.68
2019-02-20T04:55:23.041Z,13.60
2019-02-20T04:58:17.643Z,13.90
2019-02-20T05:00:48.361Z,13.30
2019-02-20T05:03:19.192Z,13.62
2019-02-20T05:05:49.826Z,13.03
2019-02-20T05:08:20.418Z,14.05
2019-02-20T05:10:51.117Z,12.85
2019-02-20T05:13:21.870Z,12.65
2019-02-20T05:15:52.496Z,12.53
2019-02-20T05:18:23.178Z,11.48
2019-02-20T05:20:53.876Z,12.50
2019-02-20T05:23:24.739Z,11.65
2019-02-20T05:25:55.550Z,13.00
2019-02-20T05:28:26.404Z,12.50
2019-02-20T05:30:57.281Z,13.58
2019-02-20T05:33:28.220Z,13.48
2019-02-20T05:35:58.738Z,12.78
2019-02-20T05:38:29.421Z,11.90
2019-02-20T05:41:00.038Z,12.37
2019-02-20T05:43:30.659Z,13.28
2019-02-20T05:46:01.390Z,13.22
2019-02-20T05:48:32.127Z,12.82
2019-02-20T05:51:02.857Z,12.47
2019-02-20T05:53:33.540Z,12.58
2019-02-20T05:56:04.756Z,12.45
2019-02-20T05:58:35.659Z,12.30
2019-02-20T06:01:06.378Z,13.08
2019-02-20T06:03:37.440Z,12.00
2019-02-20T06:06:08.109Z,12.40
2019-02-20T06:08:38.770Z,11.15
2019-02-20T06:11:14.687Z,11.40
2019-02-20T06:13:42.011Z,12.63
2019-02-20T06:16:12.788Z,12.23
2019-02-20T06:18:51.457Z,12.35
2019-02-20T06:21:25.628Z,11.20
2019-02-20T06:24:11.595Z,12.00
2019-02-20T06:26:43.338Z,12.68
2019-02-20T06:29:18.996Z,11.18
2019-02-20T06:31:49.536Z,11.85
2019-02-20T06:34:25.792Z,12.03
2019-02-20T06:36:57.908Z,12.23
2019-02-20T06:39:28.638Z,12.07
2019-02-20T06:42:08.707Z,11.35
2019-02-20T06:44:43.647Z,11.70
2019-02-20T06:47:34.322Z,10.88
2019-02-20T06:50:05.458Z,10.65
2019-02-20T06:52:38.717Z,12.95
2019-02-20T06:55:11.053Z,11.03
2019-02-20T07:00:12.089Z,12.00
2019-02-20T07:02:43.128Z,12.35
2019-02-20T07:05:51.718Z,11.68
2019-02-20T07:08:59.857Z,11.60
2019-02-20T07:12:23.529Z,13.40
2019-02-20T07:15:14.154Z,11.55
2019-02-20T07:18:11.427Z,11.38
2019-02-20T07:21:33.899Z,11.08
2019-02-20T07:24:39.659Z,11.57
2019-02-20T07:27:46.999Z,12.40
2019-02-20T07:30:17.618Z,11.57
2019-02-20T07:32:48.228Z,12.30
2019-02-20T07:35:18.892Z,11.53
2019-02-20T07:37:49.457Z,11.20
2019-02-20T07:40:21.018Z,11.22
2019-02-20T07:42:51.626Z,10.65
2019-02-20T07:45:22.318Z,10.23
2019-02-20T07:47:53.107Z,9.95
2019-02-20T07:50:23.777Z,10.15
2019-02-20T07:52:54.367Z,9.45
2019-02-20T07:55:24.988Z,10.00
2019-02-20T07:57:55.711Z,9.28
2019-02-20T08:00:50.041Z,10.05
2019-02-20T08:03:20.763Z,8.63
2019-02-20T08:05:51.408Z,10.20
2019-02-20T08:08:21.930Z,9.60
2019-02-20T08:10:53.338Z,8.98
2019-02-20T08:13:24.351Z,8.25
2019-02-20T08:15:54.858Z,9.25
2019-02-20T08:18:25.424Z,9.08
2019-02-20T08:20:58.999Z,7.92
2019-02-20T08:23:29.788Z,8.03
2019-02-20T08:26:00.465Z,8.43
2019-02-20T08:28:31.198Z,8.05
2019-02-20T08:31:01.883Z,7.83
2019-02-20T08:33:32.615Z,6.45
2019-02-20T08:36:03.344Z,6.22
2019-02-20T08:38:33.840Z,6.03
2019-02-20T08:41:04.357Z,6.10
2019-02-20T08:43:34.898Z,5.62
2019-02-20T08:46:05.661Z,5.72
2019-02-20T08:48:39.040Z,6.20
2019-02-20T08:51:09.608Z,6.35
2019-02-20T08:53:40.503Z,6.40
2019-02-20T08:56:11.648Z,6.08
2019-02-20T08:58:43.808Z,6.42
2019-02-20T09:01:14.516Z,6.58
2019-02-20T09:03:45.087Z,5.95
2019-02-20T09:06:15.726Z,6.45
2019-02-20T09:08:46.388Z,6.03
2019-02-20T09:11:16.977Z,5.60
2019-02-20T09:13:47.549Z,6.62
2019-02-20T09:16:18.058Z,6.50
2019-02-20T09:18:48.659Z,6.30
2019-02-20T09:21:19.140Z,5.65
2019-02-20T09:23:49.777Z,5.65
2019-02-20T09:26:20.310Z,5.90
2019-02-20T09:28:50.880Z,3.70
2019-02-20T09:31:22.798Z,2.42
2019-02-20T09:33:53.452Z,2.55
2019-02-20T09:36:24.028Z,3.05
2019-02-20T09:38:54.627Z,3.27
2019-02-20T09:41:25.168Z,3.77
2019-02-20T09:43:55.880Z,4.17
2019-02-20T09:46:26.343Z,3.60
2019-02-20T09:48:56.989Z,3.70
2019-02-20T09:51:27.566Z,3.30
2019-02-20T09:53:58.198Z,3.80
2019-02-20T09:56:28.728Z,3.67
2019-02-20T09:58:59.197Z,3.98
2019-02-20T10:01:29.858Z,4.12
2019-02-20T10:04:00.491Z,4.80
2019-02-20T10:06:31.168Z,4.28
2019-02-20T10:09:01.817Z,4.85
2019-02-20T10:11:33.801Z,4.65
2019-02-20T10:14:04.365Z,4.37
2019-02-20T10:16:34.927Z,4.37
2019-02-20T10:19:05.488Z,5.05
2019-02-20T10:21:36.007Z,4.62
2019-02-20T10:24:06.568Z,5.03
2019-02-20T10:26:37.037Z,5.28
2019-02-20T10:29:07.638Z,4.62
2019-02-20T10:31:38.200Z,4.10
2019-02-20T10:34:08.767Z,4.33
2019-02-20T10:36:39.417Z,4.03
2019-02-20T10:39:10.552Z,4.30
2019-02-20T10:41:41.151Z,3.50
2019-02-20T10:44:11.660Z,4.03
2019-02-20T10:46:42.273Z,4.10
2019-02-20T10:49:12.877Z,3.83
2019-02-20T10:51:43.399Z,4.17
2019-02-20T10:54:14.095Z,4.20
2019-02-20T10:56:44.637Z,4.05
2019-02-20T10:59:15.221Z,4.37
2019-02-20T11:01:45.818Z,4.05
2019-02-20T11:04:16.554Z,4.83
2019-02-20T11:06:47.108Z,4.50
2019-02-20T11:09:18.173Z,4.92
2019-02-20T11:11:48.708Z,4.65
2019-02-20T11:14:19.388Z,5.00
2019-02-20T11:16:51.459Z,4.92
2019-02-20T11:19:22.030Z,4.25
2019-02-20T11:21:52.641Z,4.92
2019-02-20T11:24:23.261Z,3.92
2019-02-20T11:26:55.237Z,4.55
2019-02-20T11:29:26.209Z,4.37
2019-02-20T11:31:56.831Z,4.12
2019-02-20T11:34:27.488Z,4.08
2019-02-20T11:36:59.078Z,3.87
2019-02-20T11:39:37.481Z,4.17
2019-02-20T11:42:01.800Z,4.15
2019-02-20T11:44:32.473Z,4.40
2019-02-20T11:47:02.958Z,4.00
2019-02-20T11:49:33.517Z,4.05
2019-02-20T11:52:05.018Z,4.20
2019-02-20T11:54:36.168Z,4.62
2019-02-20T11:57:06.738Z,4.40
2019-02-20T11:59:37.318Z,4.40
2019-02-20T12:02:08.106Z,4.87
2019-02-20T12:04:38.738Z,4.08
2019-02-20T12:07:09.378Z,4.10
2019-02-20T12:09:39.877Z,4.55
2019-02-20T12:12:10.509Z,4.33
2019-02-20T12:14:40.997Z,4.10
2019-02-20T12:17:11.616Z,4.03
2019-02-20T12:19:42.066Z,4.37
2019-02-20T12:22:12.606Z,4.08
2019-02-20T12:24:45.276Z,4.12
2019-02-20T12:27:15.910Z,4.65
2019-02-20T12:29:47.295Z,4.93
2019-02-20T12:32:17.877Z,4.28
2019-02-20T12:34:48.518Z,3.95
2019-02-20T12:37:19.226Z,4.30
2019-02-20T12:39:49.706Z,3.92
2019-02-20T12:42:20.412Z,3.50
2019-02-20T12:44:50.909Z,2.90
2019-02-20T12:47:21.661Z,2.50
2019-02-20T12:49:52.226Z,2.70
2019-02-20T12:52:22.825Z,3.00
2019-02-20T12:54:53.386Z,2.52
2019-02-20T12:57:24.146Z,2.98
2019-02-20T12:59:54.727Z,3.05
2019-02-20T13:02:26.255Z,3.27
2019-02-20T13:04:56.987Z,3.20
2019-02-20T13:07:27.607Z,2.58
2019-02-20T13:09:58.146Z,3.30
2019-02-20T13:12:30.451Z,3.12
2019-02-20T13:15:01.046Z,2.85
2019-02-20T13:17:31.688Z,3.40
2019-02-20T13:20:02.387Z,3.47
2019-02-20T13:25:04.299Z,2.85
2019-02-20T13:27:35.068Z,3.08
2019-02-20T13:30:05.926Z,3.55
2019-02-20T13:32:36.595Z,3.62
2019-02-20T13:35:07.479Z,3.70
2019-02-20T13:37:38.157Z,3.98
2019-02-20T13:40:09.465Z,3.33
2019-02-20T13:42:40.130Z,3.27
2019-02-20T13:45:11.377Z,3.27
2019-02-20T13:47:42.066Z,3.17
2019-02-20T13:50:13.016Z,3.67
2019-02-20T13:52:52.044Z,3.27
2019-02-20T13:55:17.350Z,3.10
2019-02-20T13:57:48.320Z,3.27
2019-02-20T14:00:22.212Z,2.83
2019-02-20T14:02:52.592Z,2.83
2019-02-20T14:05:23.476Z,3.33
2019-02-20T14:07:54.007Z,3.20
2019-02-20T14:10:24.586Z,3.12
2019-02-20T14:12:56.119Z,3.05
2019-02-20T14:15:26.776Z,2.90
2019-02-20T14:18:16.218Z,3.52
2019-02-20T14:21:37.676Z,3.67
2019-02-20T14:24:08.427Z,3.45
2019-02-20T14:26:39.034Z,2.92
2019-02-20T14:29:32.116Z,3.65
2019-02-20T14:32:08.130Z,3.90
2019-02-20T14:34:38.757Z,3.70
2019-02-20T14:37:11.216Z,2.87
2019-02-20T14:39:46.936Z,3.42
2019-02-20T14:42:19.606Z,2.70
2019-02-20T14:44:50.194Z,3.02
2019-02-20T14:47:29.586Z,3.42
2019-02-20T14:50:19.215Z,3.20
2019-02-20T14:57:19.191Z,2.90
2019-02-20T15:02:16.643Z,3.35
2019-02-20T15:04:59.606Z,3.20
2019-02-20T15:07:33.867Z,3.62
2019-02-20T15:10:04.636Z,3.40
2019-02-20T15:12:36.665Z,3.80
2019-02-20T15:15:16.026Z,4.05
2019-02-20T15:21:41.950Z,4.20
2019-02-20T15:24:26.865Z,4.37
2019-02-20T15:26:58.965Z,3.83
2019-02-20T15:29:29.775Z,4.20
2019-02-20T15:32:15.045Z,4.65
2019-02-20T15:34:45.546Z,4.17
2019-02-20T15:37:17.126Z,4.50
2019-02-20T15:39:48.700Z,4.45
2019-02-20T15:42:19.376Z,4.45
2019-02-20T15:44:49.906Z,5.45
2019-02-20T15:47:20.506Z,4.62
2019-02-20T15:49:51.106Z,4.58
2019-02-20T15:52:21.825Z,5.03
2019-02-20T15:54:52.805Z,5.47
2019-02-20T15:57:23.376Z,4.83
2019-02-20T15:59:53.957Z,5.75
2019-02-20T16:02:24.544Z,4.87
2019-02-20T16:04:56.666Z,5.08
2019-02-20T16:07:27.236Z,4.72
2019-02-20T16:09:57.836Z,5.37
2019-02-20T16:12:28.456Z,5.35
2019-02-20T16:14:59.108Z,5.80
2019-02-20T16:17:29.658Z,5.33
2019-02-20T16:20:00.312Z,6.20
2019-02-20T16:22:31.457Z,5.90
2019-02-20T16:25:01.958Z,6.42
2019-02-20T16:27:32.518Z,7.47
2019-02-20T16:30:03.017Z,7.35
2019-02-20T16:32:34.186Z,7.20
2019-02-20T16:35:04.746Z,8.10
2019-02-20T16:37:35.546Z,6.53
2019-02-20T16:40:06.706Z,7.47
2019-02-20T16:42:43.646Z,8.18
2019-02-20T16:45:22.734Z,6.95
2019-02-20T16:47:53.719Z,6.87
2019-02-20T16:50:24.286Z,5.65
2019-02-20T16:52:54.846Z,6.10
2019-02-20T16:55:25.436Z,5.25
2019-02-20T16:57:57.108Z,5.03
2019-02-20T17:00:27.768Z,4.37
2019-02-20T17:02:58.506Z,4.40
2019-02-20T17:05:29.033Z,4.00
2019-02-20T17:07:59.546Z,4.22
2019-02-20T17:10:30.087Z,3.70
2019-02-20T17:13:00.696Z,4.12
2019-02-20T17:15:31.418Z,5.10
2019-02-20T17:18:01.935Z,3.77
2019-02-20T17:20:33.465Z,4.92
2019-02-20T17:23:04.026Z,4.45
2019-02-20T17:25:34.614Z,4.12
2019-02-20T17:28:05.979Z,3.45
2019-02-20T17:30:36.795Z,3.65
2019-02-20T17:33:07.346Z,3.95
2019-02-20T17:35:37.836Z,4.10
2019-02-20T17:38:08.369Z,3.70
2019-02-20T17:40:38.916Z,4.15
2019-02-20T17:43:09.887Z,4.17
2019-02-20T17:45:40.346Z,4.08
2019-02-20T17:48:10.985Z,4.22
2019-02-20T17:50:41.535Z,4.12
2019-02-20T17:53:12.060Z,4.47
2019-02-20T17:55:42.830Z,4.55
2019-02-20T17:58:15.506Z,4.30
2019-02-20T18:03:15.221Z,4.58
2019-02-20T18:05:45.770Z,4.70
2019-02-20T18:08:16.418Z,4.58
2019-02-20T18:10:46.935Z,4.50
2019-02-20T18:13:17.488Z,4.40
2019-02-20T18:15:48.068Z,4.20
2019-02-20T18:18:18.638Z,5.10
2019-02-20T18:20:49.206Z,4.85
2019-02-20T18:23:19.719Z,5.40
2019-02-20T18:25:50.278Z,4.47
2019-02-20T18:28:24.554Z,4.97
2019-02-20T18:33:22.748Z,5.10
2019-02-20T18:35:53.247Z,4.95
2019-02-20T18:38:24.278Z,4.90
2019-02-20T18:40:55.831Z,4.83
2019-02-20T18:43:26.471Z,4.50
2019-02-20T18:45:57.402Z,4.30
2019-02-20T18:48:28.819Z,4.08
2019-02-20T18:51:06.459Z,4.53
2019-02-20T18:53:37.870Z,4.25
2019-02-20T18:56:08.469Z,4.80
2019-02-20T18:58:48.396Z,4.53
2019-02-20T19:01:34.993Z,5.30
2019-02-20T19:04:13.516Z,4.62
2019-02-20T19:06:45.083Z,4.70
2019-02-20T19:09:23.869Z,5.40
2019-02-20T19:12:13.051Z,5.12
2019-02-20T19:15:10.192Z,4.53
2019-02-20T19:18:19.648Z,5.53
2019-02-20T19:21:31.625Z,4.95
2019-02-20T19:24:51.948Z,5.50
2019-02-20T19:28:06.060Z,5.12
2019-02-20T19:31:14.232Z,4.90
2019-02-20T19:34:26.727Z,5.35
2019-02-20T19:38:06.495Z,5.42
2019-02-20T19:41:06.091Z,5.70
2019-02-20T19:43:52.928Z,5.62
2019-02-20T19:47:17.975Z,5.15
2019-02-20T19:50:33.185Z,6.35
2019-02-20T19:53:36.886Z,6.00
2019-02-20T19:56:44.170Z,5.78
2019-02-20T19:59:47.377Z,5.58
2019-02-20T20:02:33.361Z,5.58
2019-02-20T20:05:57.032Z,5.55
2019-02-20T20:09:21.128Z,6.00
2019-02-20T20:12:13.150Z,5.25
2019-02-20T20:15:08.490Z,6.35
2019-02-20T20:18:50.995Z,5.83
2019-02-20T20:21:52.968Z,5.87
2019-02-20T20:24:44.758Z,5.47
2019-02-20T20:28:12.271Z,5.93
2019-02-20T20:31:51.451Z,6.25
2019-02-20T20:35:09.804Z,5.87
2019-02-20T20:38:27.517Z,6.50
2019-02-20T20:41:40.987Z,5.47
2019-02-20T20:44:39.989Z,5.87
2019-02-20T20:47:21.308Z,5.33
2019-02-20T20:50:39.151Z,6.15
2019-02-20T20:53:35.020Z,6.72
2019-02-20T20:56:40.814Z,5.70
2019-02-20T20:59:23.667Z,6.10
2019-02-20T21:02:23.977Z,5.83
2019-02-20T21:05:44.587Z,6.08
2019-02-20T21:08:38.857Z,6.20
2019-02-20T21:11:55.063Z,6.50
2019-02-20T21:15:21.468Z,6.05
2019-02-20T21:18:33.058Z,6.62
2019-02-20T21:21:56.760Z,7.20
2019-02-20T21:25:29.708Z,6.47
2019-02-20T21:28:48.817Z,6.70
2019-02-20T21:32:22.081Z,6.37
2019-02-20T21:35:42.692Z,6.72
2019-02-20T21:38:40.237Z,6.50
2019-02-20T21:41:51.417Z,5.85
2019-02-20T21:44:55.977Z,6.25
2019-02-20T21:48:03.478Z,6.00
2019-02-20T21:51:12.963Z,5.95
2019-02-20T21:54:35.339Z,6.10
2019-02-20T21:57:33.652Z,6.83
2019-02-20T22:00:43.438Z,6.45
2019-02-20T22:03:53.417Z,5.75
2019-02-20T22:07:05.520Z,6.72
2019-02-20T22:09:57.581Z,6.03
2019-02-20T22:12:51.193Z,7.45
2019-02-20T22:15:53.699Z,6.03
2019-02-20T22:18:45.947Z,6.75
2019-02-20T22:22:00.286Z,7.12
2019-02-20T22:24:58.148Z,6.42
2019-02-20T22:28:30.977Z,6.90
2019-02-20T22:31:32.860Z,5.95
2019-02-20T22:34:24.947Z,6.30
2019-02-20T22:37:58.548Z,6.83
2019-02-20T22:44:59.617Z,7.12
2019-02-20T22:47:58.358Z,6.35
2019-02-20T22:51:05.857Z,6.05
2019-02-20T22:54:02.278Z,6.12
2019-02-20T22:56:58.646Z,5.67
2019-02-20T23:00:02.209Z,6.05
2019-02-20T23:03:23.798Z,5.35
2019-02-20T23:06:17.718Z,5.00
2019-02-20T23:09:47.037Z,5.20
2019-02-20T23:13:00.338Z,5.42
2019-02-20T23:15:31.038Z,5.12
2019-02-20T23:18:01.501Z,5.33
2019-02-20T23:20:32.091Z,5.28
2019-02-20T23:23:02.557Z,5.03
2019-02-20T23:25:33.292Z,4.92
2019-02-20T23:28:05.097Z,5.33
2019-02-20T23:30:35.608Z,6.03
2019-02-20T23:33:06.165Z,5.55
2019-02-20T23:35:36.737Z,6.12
2019-02-20T23:38:09.418Z,6.40
2019-02-20T23:40:39.928Z,6.37
2019-02-20T23:43:11.784Z,6.03
2019-02-20T23:45:52.856Z,5.95
2019-02-20T23:48:34.091Z,5.83
2019-02-20T23:51:05.776Z,6.10
2019-02-20T23:53:36.278Z,5.72
2019-02-20T23:56:06.827Z,5.40
2019-02-20T23:58:37.378Z,6.10
